Time;durP1;ratioP1;P1;durP2;ratioP2;P2;SDS_P1;SDS_P2;PMS_P1;PMS_P2;Temp;Humidity;BMP_temperature;BMP_pressure;BME280_temperature;BME280_humidity;BME280_pressure;Samples;Min_cycle;Max_cycle;Signal;HPM_P1;HPM_P2
2023/04/03 00:01:21;;;;;;;14.50;3.20;;;;;;;6.65;71.84;99262.51;68317;1282;1016115;-62
2023/04/03 00:04:24;;;;;;;13.60;3.40;;;;;;;6.79;71.02;99264.90;68306;1282;1015451;-62
2023/04/03 00:07:27;;;;;;;;;;;;;;;6.69;71.06;99266.16;68326;1282;1015354;-62
2023/04/03 00:10:29;;;;;;;9.10;2.80;;;;;;;6.66;71.22;99267.46;68313;1282;1015487;-62
2023/04/03 00:13:31;;;;;;;13.40;3.40;;;;;;;6.55;71.75;99268.92;68328;1282;1015313;-62
2023/04/03 00:16:34;;;;;;;13.80;3.30;;;;;;;6.52;72.06;99272.52;68317;1282;1015371;-62
2023/04/03 00:19:36;;;;;;;13.10;3.70;;;;;;;6.50;72.15;99274.86;68313;1282;1015891;-63
2023/04/03 00:22:39;;;;;;;12.80;3.20;;;;;;;6.49;72.21;99275.23;68300;1282;1015511;-61
2023/04/03 00:25:41;;;;;;;12.90;3.50;;;;;;;6.49;72.13;99271.59;68302;1282;1015950;-62
2023/04/03 00:28:43;;;;;;;10.50;3.10;;;;;;;6.53;72.33;99272.51;68314;1282;1015721;-62
2023/04/03 00:31:46;;;;;;;11.40;3.10;;;;;;;6.55;72.06;99275.03;68312;1282;1015946;-63
2023/04/03 00:34:48;;;;;;;14.70;3.20;;;;;;;6.37;72.42;99281.08;68315;1282;1015671;-62
2023/04/03 00:37:51;;;;;;;12.90;3.10;;;;;;;6.28;72.69;99275.33;68298;1282;1015284;-62
2023/04/03 00:40:53;;;;;;;14.70;3.40;;;;;;;6.22;73.11;99287.34;68311;1282;1016022;-62
2023/04/03 00:43:55;;;;;;;13.40;3.20;;;;;;;6.08;73.66;99285.05;68294;1282;1016411;-62
2023/04/03 00:46:58;;;;;;;12.40;3.10;;;;;;;6.08;73.45;99294.23;68320;1282;1015331;-62
2023/04/03 00:50:00;;;;;;;11.30;3.10;;;;;;;6.01;73.81;99288.06;68289;1282;1015191;-62
2023/04/03 00:53:02;;;;;;;9.50;2.80;;;;;;;6.07;73.45;99287.85;68325;1282;1015212;-62
2023/04/03 00:56:05;;;;;;;15.20;3.40;;;;;;;6.06;73.57;99286.16;68322;1282;1015756;-62
2023/04/03 00:59:07;;;;;;;11.00;2.90;;;;;;;6.04;73.37;99286.38;68328;1282;1014994;-62
2023/04/03 01:02:10;;;;;;;12.60;3.20;;;;;;;5.92;73.89;99288.69;68318;1282;1015859;-62
2023/04/03 01:05:12;;;;;;;12.10;3.10;;;;;;;5.96;73.80;99292.77;68295;1282;1015638;-62
2023/04/03 01:08:14;;;;;;;11.00;3.00;;;;;;;6.07;73.37;99292.04;68314;1282;1015923;-62
2023/04/03 01:11:17;;;;;;;12.10;2.90;;;;;;;6.10;73.25;99288.80;68311;1282;1016478;-62
2023/04/03 01:14:19;;;;;;;13.70;3.50;;;;;;;6.05;72.93;99294.18;68303;1282;1015559;-62
2023/04/03 01:17:22;;;;;;;11.60;2.70;;;;;;;6.06;73.03;99293.80;68306;1282;1015769;-63
2023/04/03 01:20:24;;;;;;;14.00;3.40;;;;;;;5.99;73.15;99298.36;65723;1282;5368152;-62
2023/04/03 01:23:27;;;;;;;11.70;2.90;;;;;;;5.94;73.50;99299.23;68305;1282;1015552;-62
2023/04/03 01:26:30;;;;;;;13.80;3.40;;;;;;;5.96;73.64;99297.08;68309;1282;1016151;-62
2023/04/03 01:29:32;;;;;;;8.50;2.50;;;;;;;5.98;73.44;99304.30;68303;1282;1016571;-62
2023/04/03 01:32:35;;;;;;;11.10;2.70;;;;;;;5.97;72.38;99307.98;68312;1282;1015762;-62
2023/04/03 01:35:45;;;;;;;12.90;2.70;;;;;;;5.92;72.74;99311.45;68311;1282;1016497;-63
2023/04/03 01:38:48;;;;;;;12.40;3.10;;;;;;;5.85;72.82;99315.15;68309;1282;1016083;-62
2023/04/03 01:41:51;;;;;;;10.00;2.90;;;;;;;5.75;72.69;99317.39;68289;1282;1014756;-62
2023/04/03 01:44:53;;;;;;;14.10;3.60;;;;;;;5.72;73.32;99318.20;68312;1282;1016873;-62
2023/04/03 01:47:56;;;;;;;;;;;;;;;5.68;75.73;99319.54;68298;1282;1015876;-62
2023/04/03 01:50:59;;;;;;;;;;;;;;;5.71;74.37;99322.91;68320;1282;1015918;-62
2023/04/03 01:54:01;;;;;;;8.20;2.60;;;;;;;5.70;73.05;99322.59;68331;1282;1015496;-62
2023/04/03 01:57:03;;;;;;;10.60;2.70;;;;;;;5.61;72.92;99323.41;68298;1282;1014786;-62
2023/04/03 02:00:06;;;;;;;11.00;3.00;;;;;;;5.62;73.48;99324.44;68290;1282;1015792;-62
2023/04/03 02:03:08;;;;;;;11.10;2.80;;;;;;;5.64;73.07;99326.26;68299;1282;1014741;-62
2023/04/03 02:06:10;;;;;;;11.90;2.90;;;;;;;5.65;72.83;99331.10;68297;1282;1016067;-62
2023/04/03 02:09:13;;;;;;;9.20;2.40;;;;;;;5.65;72.71;99329.71;68306;1282;1016012;-62
2023/04/03 02:12:15;;;;;;;10.90;2.50;;;;;;;5.64;72.44;99333.70;68309;1282;1016211;-63
2023/04/03 02:15:18;;;;;;;7.70;2.00;;;;;;;5.53;72.85;99334.94;68318;1282;1015621;-62
2023/04/03 02:18:20;;;;;;;10.80;2.60;;;;;;;5.47;72.72;99332.17;68306;1282;1015349;-62
2023/04/03 02:21:22;;;;;;;9.90;2.40;;;;;;;5.46;73.17;99340.17;68280;1282;1015582;-62
2023/04/03 02:24:25;;;;;;;10.60;2.80;;;;;;;5.49;72.73;99337.67;68284;1282;1015925;-62
2023/04/03 02:27:27;;;;;;;12.80;3.00;;;;;;;5.42;73.40;99341.89;68287;1282;1016007;-62
2023/04/03 02:30:30;;;;;;;12.50;2.60;;;;;;;5.51;72.90;99343.33;68270;1282;1015634;-62
2023/04/03 02:33:32;;;;;;;;;;;;;;;5.54;73.11;99342.35;68281;1282;1016415;-62
2023/04/03 02:36:35;;;;;;;12.60;2.80;;;;;;;5.59;72.65;99338.23;68313;1282;1015658;-62
2023/04/03 02:39:37;;;;;;;11.60;3.00;;;;;;;5.72;72.16;99336.05;68311;1282;1016014;-62
2023/04/03 02:42:40;;;;;;;11.00;3.00;;;;;;;5.97;71.57;99338.70;68300;1282;1016519;-62
2023/04/03 02:45:42;;;;;;;12.90;2.60;;;;;;;5.81;71.75;99340.63;68310;1282;1015146;-63
2023/04/03 02:48:45;;;;;;;8.40;2.10;;;;;;;5.80;71.77;99344.13;68308;1282;1016014;-62
2023/04/03 02:51:47;;;;;;;11.80;2.80;;;;;;;5.94;71.23;99344.36;68308;1282;1015622;-62
2023/04/03 02:54:49;;;;;;;10.90;2.90;;;;;;;5.83;71.75;99344.35;68304;1282;1015836;-62
2023/04/03 02:57:52;;;;;;;12.30;3.10;;;;;;;5.89;71.42;99348.14;68293;1282;1016148;-62
2023/04/03 03:00:54;;;;;;;12.40;3.10;;;;;;;5.84;71.88;99353.00;68309;1282;1015777;-62
2023/04/03 03:03:56;;;;;;;8.80;3.00;;;;;;;5.90;71.34;99354.38;68321;1282;1015355;-62
2023/04/03 03:06:59;;;;;;;11.10;3.10;;;;;;;5.90;71.02;99356.13;68312;1282;1016436;-62
2023/04/03 03:10:01;;;;;;;13.40;3.30;;;;;;;5.79;71.04;99353.88;68297;1282;1015539;-62
2023/04/03 03:13:04;;;;;;;14.60;3.20;;;;;;;5.81;70.77;99352.44;68293;1282;1015536;-62
2023/04/03 03:16:06;;;;;;;15.70;3.50;;;;;;;5.74;70.49;99352.30;68309;1282;1015985;-62
2023/04/03 03:19:09;;;;;;;14.10;3.00;;;;;;;5.65;70.17;99353.98;68301;1282;1016376;-62
2023/04/03 03:22:12;;;;;;;9.60;2.90;;;;;;;5.54;70.71;99355.18;68310;1282;1015566;-62
2023/04/03 03:25:14;;;;;;;16.40;3.50;;;;;;;5.55;69.65;99357.77;68297;1282;1015784;-62
2023/04/03 03:28:17;;;;;;;11.40;3.00;;;;;;;5.53;69.97;99360.25;68311;1282;1015749;-62
2023/04/03 03:31:19;;;;;;;15.60;3.60;;;;;;;5.41;70.17;99362.89;68306;1282;1015142;-62
2023/04/03 03:34:21;;;;;;;13.40;3.10;;;;;;;5.46;69.73;99366.38;68288;1282;1016249;-62
2023/04/03 03:37:24;;;;;;;10.90;2.70;;;;;;;5.47;69.84;99373.48;68312;1282;1016252;-62
2023/04/03 03:40:26;;;;;;;14.70;3.30;;;;;;;5.42;69.41;99371.86;68295;1282;1016130;-62
2023/04/03 03:43:29;;;;;;;14.40;3.20;;;;;;;5.38;69.51;99367.15;68297;1282;1016068;-62
2023/04/03 03:46:31;;;;;;;10.90;2.70;;;;;;;5.35;69.37;99369.66;68305;1282;1015246;-62
2023/04/03 03:49:33;;;;;;;11.70;3.10;;;;;;;5.28;69.18;99375.77;68305;1282;1014989;-62
2023/04/03 03:52:36;;;;;;;10.60;2.50;;;;;;;5.28;68.78;99376.31;68315;1282;1015862;-62
2023/04/03 03:55:38;;;;;;;14.70;2.90;;;;;;;5.18;68.67;99378.31;68301;1282;1016070;-62
2023/04/03 03:58:40;;;;;;;7.70;2.40;;;;;;;5.18;68.29;99384.05;68305;1282;1016328;-62
2023/04/03 04:01:43;;;;;;;11.00;2.50;;;;;;;5.20;68.07;99380.52;68283;1282;1015937;-62
2023/04/03 04:04:45;;;;;;;12.00;2.60;;;;;;;5.16;68.17;99383.42;68307;1282;1015691;-62
2023/04/03 04:07:48;;;;;;;12.80;3.00;;;;;;;5.18;68.02;99385.94;68304;1282;1015303;-62
2023/04/03 04:10:50;;;;;;;10.30;2.80;;;;;;;5.14;67.32;99388.33;68313;1282;1015369;-62
2023/04/03 04:13:53;;;;;;;14.10;2.60;;;;;;;5.20;67.49;99386.96;68310;1282;1016044;-62
2023/04/03 04:16:56;;;;;;;10.90;2.50;;;;;;;5.17;67.25;99396.04;68294;1282;1015672;-62
2023/04/03 04:19:58;;;;;;;10.90;2.70;;;;;;;5.21;67.14;99398.37;68295;1282;1016257;-62
2023/04/03 04:23:00;;;;;;;9.50;2.50;;;;;;;5.17;66.98;99394.67;68305;1282;1016093;-62
2023/04/03 04:26:03;;;;;;;10.50;2.40;;;;;;;5.20;66.01;99397.16;68299;1282;1015944;-62
2023/04/03 04:29:05;;;;;;;7.30;2.10;;;;;;;5.10;66.39;99405.77;68307;1282;1015322;-62
2023/04/03 04:32:08;;;;;;;10.10;2.40;;;;;;;4.92;67.40;99411.84;68305;1282;1015896;-62
2023/04/03 04:35:11;;;;;;;12.50;2.40;;;;;;;4.91;67.19;99411.01;68299;1282;1015945;-62
2023/04/03 04:38:13;;;;;;;11.50;2.40;;;;;;;5.01;67.20;99414.01;68310;1282;1015844;-62
2023/04/03 04:41:16;;;;;;;14.60;2.60;;;;;;;5.06;66.30;99420.98;68295;1282;1015510;-62
2023/04/03 04:44:18;;;;;;;9.80;2.10;;;;;;;5.12;65.86;99420.13;68306;1282;1015853;-62
2023/04/03 04:47:21;;;;;;;13.70;2.60;;;;;;;5.07;65.71;99421.83;68321;1282;1016009;-62
2023/04/03 04:50:23;;;;;;;10.20;2.40;;;;;;;4.88;65.62;99423.94;68298;1282;1016068;-62
2023/04/03 04:53:25;;;;;;;13.50;2.60;;;;;;;4.86;66.30;99423.98;68290;1282;1016188;-62
2023/04/03 04:56:28;;;;;;;9.70;2.40;;;;;;;4.77;66.55;99425.79;68318;1282;1015848;-62
2023/04/03 04:59:30;;;;;;;9.80;2.40;;;;;;;4.76;65.98;99430.14;68304;1282;1015780;-61
2023/04/03 05:02:33;;;;;;;10.50;2.00;;;;;;;4.87;66.38;99435.73;68304;1282;1015514;-62
2023/04/03 05:05:35;;;;;;;9.70;2.20;;;;;;;4.84;65.50;99434.61;68314;1282;1015523;-62
2023/04/03 05:08:38;;;;;;;12.20;2.50;;;;;;;4.90;65.18;99438.26;68303;1282;1015813;-62
2023/04/03 05:11:40;;;;;;;9.20;2.20;;;;;;;4.93;65.42;99439.74;68290;1282;1014791;-62
2023/04/03 05:14:42;;;;;;;8.30;2.30;;;;;;;4.94;65.25;99436.25;68302;1282;1015531;-62
2023/04/03 05:17:45;;;;;;;11.50;2.50;;;;;;;5.06;65.26;99438.15;68291;1282;1015889;-62
2023/04/03 05:20:47;;;;;;;12.50;2.30;;;;;;;5.29;64.52;99441.98;68307;1282;1015436;-62
2023/04/03 05:23:49;;;;;;;12.50;2.70;;;;;;;5.31;64.53;99441.77;68308;1282;1015618;-62
2023/04/03 05:26:52;;;;;;;10.50;2.50;;;;;;;5.31;64.60;99437.77;68310;1282;1015609;-61
2023/04/03 05:29:54;;;;;;;12.20;2.60;;;;;;;5.32;64.15;99439.28;68321;1282;1015651;-62
2023/04/03 05:32:57;;;;;;;14.00;2.50;;;;;;;5.37;63.56;99439.16;68309;1282;1015736;-62
2023/04/03 05:35:59;;;;;;;11.10;2.60;;;;;;;5.48;63.44;99438.83;68284;1282;1015145;-62
2023/04/03 05:39:01;;;;;;;13.30;2.80;;;;;;;5.56;62.98;99445.02;68296;1282;1015076;-62
2023/04/03 05:42:04;;;;;;;9.70;2.40;;;;;;;5.67;62.16;99441.39;68295;1282;1015792;-62
2023/04/03 05:45:06;;;;;;;14.10;2.60;;;;;;;5.66;61.23;99444.87;68303;1282;1016315;-62
2023/04/03 05:48:09;;;;;;;8.80;2.10;;;;;;;5.75;61.74;99446.16;68296;1282;1015970;-62
2023/04/03 05:51:11;;;;;;;;;;;;;;;5.75;61.31;99448.77;68314;1282;1016002;-62
2023/04/03 05:54:14;;;;;;;9.60;2.00;;;;;;;5.80;60.35;99453.47;68306;1282;1017327;-62
2023/04/03 05:57:17;;;;;;;13.30;3.00;;;;;;;5.69;60.35;99458.65;68309;1282;1016252;-62
2023/04/03 06:00:21;;;;;;;13.80;2.60;;;;;;;5.77;61.09;99453.39;68308;1282;1015737;-62
2023/04/03 06:03:23;;;;;;;14.80;2.70;;;;;;;5.81;60.59;99456.03;68295;1282;1016020;-62
2023/04/03 06:06:25;;;;;;;9.70;2.00;;;;;;;5.88;60.72;99461.73;68298;1282;1015705;-62
2023/04/03 06:09:28;;;;;;;7.40;1.90;;;;;;;6.08;58.26;99459.19;68313;1282;1016367;-61
2023/04/03 06:12:31;;;;;;;10.90;2.10;;;;;;;6.17;59.01;99465.17;68303;1282;1015675;-62
2023/04/03 06:15:33;;;;;;;15.60;2.20;;;;;;;6.35;59.25;99471.35;68297;1282;1015238;-62
2023/04/03 06:18:36;;;;;;;9.40;2.10;;;;;;;6.75;56.72;99473.11;68314;1282;1016334;-62
2023/04/03 06:21:38;;;;;;;14.40;2.40;;;;;;;6.54;56.94;99474.88;68311;1282;1015844;-62
2023/04/03 06:24:41;;;;;;;10.10;2.40;;;;;;;6.37;57.17;99472.67;68302;1282;1015852;-62
2023/04/03 06:27:43;;;;;;;13.10;2.60;;;;;;;6.42;56.74;99480.48;68300;1282;1015568;-62
2023/04/03 06:30:46;;;;;;;10.40;2.40;;;;;;;6.57;56.93;99475.30;68291;1282;1015477;-62
2023/04/03 06:33:48;;;;;;;11.20;2.50;;;;;;;6.81;57.52;99473.61;68298;1282;1016075;-62
2023/04/03 06:36:51;;;;;;;10.30;2.10;;;;;;;7.29;56.93;99470.84;68318;1282;1016121;-62
2023/04/03 06:39:54;;;;;;;;;;;;;;;7.63;55.61;99477.76;68306;1282;1016193;-62
2023/04/03 06:42:56;;;;;;;12.00;2.40;;;;;;;7.93;55.33;99484.77;68302;1282;1016230;-62
2023/04/03 06:45:59;;;;;;;9.60;2.70;;;;;;;8.07;55.62;99488.58;68320;1282;1015231;-62
2023/04/03 06:49:01;;;;;;;12.30;2.40;;;;;;;8.06;55.22;99490.02;68312;1282;1016078;-61
2023/04/03 06:52:05;;;;;;;8.50;2.10;;;;;;;8.12;54.07;99501.41;68304;1282;1015263;-62
2023/04/03 06:55:08;;;;;;;9.80;2.40;;;;;;;8.08;53.69;99504.36;68307;1282;1015738;-62
2023/04/03 06:58:10;;;;;;;10.40;2.50;;;;;;;7.92;52.30;99519.63;68331;1282;1016097;-62
2023/04/03 07:01:12;;;;;;;12.00;2.40;;;;;;;8.00;52.85;99518.79;68305;1282;1014788;-62
2023/04/03 07:04:15;;;;;;;9.00;2.30;;;;;;;8.21;51.83;99509.79;68320;1282;1014980;-62
2023/04/03 07:07:18;;;;;;;6.80;2.00;;;;;;;8.07;51.55;99518.15;68316;1282;1015872;-61
2023/04/03 07:10:20;;;;;;;8.70;2.20;;;;;;;8.27;52.31;99525.94;68307;1282;1015923;-62
2023/04/03 07:13:22;;;;;;;7.90;2.00;;;;;;;8.20;51.07;99524.79;68307;1282;1015500;-62
2023/04/03 07:16:25;;;;;;;8.50;2.60;;;;;;;8.06;51.33;99525.87;68314;1282;1015900;-62
2023/04/03 07:19:28;;;;;;;8.60;2.10;;;;;;;8.16;52.29;99533.16;68323;1282;1014855;-62
2023/04/03 07:22:30;;;;;;;11.70;2.50;;;;;;;8.21;51.12;99531.02;68323;1282;1015539;-62
2023/04/03 07:25:33;;;;;;;14.70;2.70;;;;;;;7.78;50.58;99540.90;68313;1282;1015249;-62
2023/04/03 07:28:36;;;;;;;10.80;2.30;;;;;;;7.68;52.42;99536.75;68317;1282;1015458;-62
2023/04/03 07:31:38;;;;;;;13.20;2.50;;;;;;;7.83;52.41;99540.36;68311;1282;1015293;-62
2023/04/03 07:34:41;;;;;;;14.00;2.70;;;;;;;7.57;51.68;99547.21;68319;1282;1017428;-62
2023/04/03 07:37:43;;;;;;;10.10;2.20;;;;;;;7.50;51.49;99547.84;68300;1282;1016029;-62
2023/04/03 07:40:46;;;;;;;8.50;2.30;;;;;;;7.57;51.94;99556.11;68311;1282;1016040;-62
2023/04/03 07:43:49;;;;;;;12.70;2.60;;;;;;;7.70;51.74;99559.80;68295;1282;1015638;-62
2023/04/03 07:46:52;;;;;;;11.70;2.40;;;;;;;7.66;50.50;99561.52;68324;1282;1016225;-62
2023/04/03 07:49:57;;;;;;;8.40;2.20;;;;;;;7.57;51.49;99560.13;68321;1282;1015701;-62
2023/04/03 07:52:59;;;;;;;9.00;2.40;;;;;;;7.44;50.75;99555.89;68325;1282;1015924;-62
2023/04/03 07:56:02;;;;;;;10.60;2.50;;;;;;;7.48;51.86;99555.23;68336;1282;1014735;-62
2023/04/03 07:59:05;;;;;;;13.40;2.60;;;;;;;7.54;51.98;99558.68;68320;1282;1015325;-62
2023/04/03 08:02:07;;;;;;;14.40;2.80;;;;;;;7.48;52.06;99557.16;68318;1282;1015797;-62
2023/04/03 08:05:10;;;;;;;16.50;3.10;;;;;;;7.52;50.98;99563.43;68335;1282;1015649;-62
2023/04/03 08:08:12;;;;;;;9.40;2.50;;;;;;;7.29;51.13;99563.92;68318;1282;1015564;-62
2023/04/03 08:11:15;;;;;;;10.30;2.50;;;;;;;7.27;51.67;99563.12;68316;1282;1015326;-62
2023/04/03 08:14:18;;;;;;;;;;;;;;;7.35;50.79;99565.29;68334;1282;1016095;-63
2023/04/03 08:17:20;;;;;;;;;;;;;;;7.33;50.66;99566.55;68326;1282;1015257;-63
2023/04/03 08:20:23;;;;;;;8.20;2.10;;;;;;;7.35;51.24;99563.18;68312;1282;1015800;-62
2023/04/03 08:23:25;;;;;;;13.10;2.70;;;;;;;7.53;51.07;99573.50;68307;1282;1015693;-62
2023/04/03 08:26:28;;;;;;;11.00;2.40;;;;;;;7.45;50.45;99574.85;68302;1282;1016204;-62
2023/04/03 08:29:30;;;;;;;;;;;;;;;7.42;50.02;99576.84;68318;1282;1015652;-62
2023/04/03 08:32:33;;;;;;;10.90;2.50;;;;;;;7.43;49.95;99581.16;68308;1282;1015767;-62
2023/04/03 08:35:35;;;;;;;;;;;;;;;7.40;49.54;99587.16;68320;1282;1016093;-62
2023/04/03 08:38:38;;;;;;;13.30;2.80;;;;;;;7.46;49.88;99584.73;68314;1282;1016092;-62
2023/04/03 08:41:42;;;;;;;;;;;;;;;7.87;50.18;99583.91;68331;1282;1016232;-62
2023/04/03 08:44:44;;;;;;;10.80;2.40;;;;;;;8.03;48.94;99586.09;68318;1282;1015690;-62
2023/04/03 08:47:47;;;;;;;7.90;1.90;;;;;;;8.13;49.50;99586.56;68318;1282;1015497;-62
2023/04/03 08:50:49;;;;;;;10.00;2.40;;;;;;;8.01;48.40;99592.45;68326;1282;1014297;-62
2023/04/03 08:53:51;;;;;;;10.10;2.50;;;;;;;8.02;49.26;99592.38;68323;1282;1015815;-62
2023/04/03 08:56:54;;;;;;;10.20;2.40;;;;;;;7.86;48.55;99591.27;68312;1282;1015401;-62
2023/04/03 08:59:59;;;;;;;10.00;2.10;;;;;;;7.84;48.28;99599.01;68326;1282;1016092;-62
2023/04/03 09:03:01;;;;;;;10.10;2.20;;;;;;;7.83;49.15;99598.14;68307;1282;1016391;-62
2023/04/03 09:06:03;;;;;;;10.80;2.50;;;;;;;8.09;48.61;99589.33;68321;1282;1015664;-63
2023/04/03 09:09:06;;;;;;;11.40;2.50;;;;;;;7.91;48.50;99601.52;68307;1282;1015947;-62
2023/04/03 09:12:09;;;;;;;12.20;2.50;;;;;;;7.83;48.75;99599.73;68324;1282;1015651;-62
2023/04/03 09:15:12;;;;;;;10.00;2.50;;;;;;;7.87;48.55;99598.52;68338;1282;1015735;-62
2023/04/03 09:18:15;;;;;;;11.90;2.60;;;;;;;7.83;49.15;99607.20;68315;1282;1016031;-62
2023/04/03 09:21:18;;;;;;;13.50;2.90;;;;;;;7.90;49.91;99606.25;68332;1282;1015627;-62
2023/04/03 09:24:20;;;;;;;10.80;2.50;;;;;;;8.01;49.80;99608.09;68315;1282;1015854;-62
2023/04/03 09:27:22;;;;;;;9.80;2.40;;;;;;;8.17;49.63;99612.02;68321;1282;1015587;-62
2023/04/03 09:30:25;;;;;;;9.30;2.60;;;;;;;8.39;49.88;99607.17;68322;1282;1015940;-62
2023/04/03 09:33:27;;;;;;;12.90;2.50;;;;;;;8.54;48.14;99606.96;68327;1282;1016170;-62
2023/04/03 09:36:30;;;;;;;10.20;2.30;;;;;;;8.66;47.94;99611.89;68327;1259;1015309;-61
2023/04/03 09:39:33;;;;;;;12.40;2.60;;;;;;;8.80;48.61;99615.16;68330;1282;1015139;-62
2023/04/03 09:42:36;;;;;;;12.00;2.40;;;;;;;8.98;47.97;99614.58;68313;1282;1015544;-62
2023/04/03 09:45:38;;;;;;;12.80;3.00;;;;;;;9.07;48.44;99614.05;68308;1282;1015467;-62
2023/04/03 09:48:40;;;;;;;11.70;2.60;;;;;;;9.10;46.73;99624.92;68323;1282;1015752;-62
2023/04/03 09:51:43;;;;;;;7.50;2.10;;;;;;;8.94;46.49;99616.13;68314;1282;1015754;-62
2023/04/03 09:54:46;;;;;;;;;;;;;;;9.01;47.25;99617.45;68330;1282;1015702;-62
2023/04/03 09:57:48;;;;;;;13.20;3.10;;;;;;;9.22;46.18;99616.18;68314;1282;1015994;-62
2023/04/03 10:00:51;;;;;;;11.20;2.60;;;;;;;9.02;45.22;99618.94;68318;1282;1016084;-62
2023/04/03 10:03:53;;;;;;;;;;;;;;;8.53;44.47;99633.64;68303;1282;1015489;-62
2023/04/03 10:06:56;;;;;;;14.40;3.30;;;;;;;8.39;45.09;99622.52;68308;1282;1016152;-61
2023/04/03 10:09:58;;;;;;;11.00;2.50;;;;;;;8.60;44.36;99619.98;68327;1282;1015452;-62
2023/04/03 10:13:01;;;;;;;10.70;2.80;;;;;;;8.66;43.83;99623.20;68309;1282;1015928;-62
2023/04/03 10:16:03;;;;;;;9.90;2.50;;;;;;;8.89;46.24;99616.17;68331;1282;1015436;-62
2023/04/03 10:19:05;;;;;;;13.50;3.10;;;;;;;9.21;46.80;99618.66;68300;1282;1016139;-62
2023/04/03 10:22:08;;;;;;;10.60;2.80;;;;;;;9.13;45.23;99619.03;68312;1282;1015426;-62
2023/04/03 10:25:10;;;;;;;11.30;2.80;;;;;;;8.87;45.07;99632.48;68313;1282;1016130;-62
2023/04/03 10:28:13;;;;;;;9.30;2.30;;;;;;;8.70;45.41;99631.60;68314;1282;1015478;-62
2023/04/03 10:31:16;;;;;;;11.10;2.50;;;;;;;8.68;46.50;99624.90;68323;1282;1015881;-62
2023/04/03 10:34:18;;;;;;;11.60;2.90;;;;;;;8.94;45.88;99628.36;68312;1282;1016083;-62
2023/04/03 10:37:21;;;;;;;11.90;2.70;;;;;;;8.98;44.74;99622.75;68320;1282;1016207;-61
2023/04/03 10:40:23;;;;;;;12.60;2.60;;;;;;;9.09;44.84;99620.42;68325;1282;1015995;-62
2023/04/03 10:43:25;;;;;;;13.60;2.50;;;;;;;9.30;44.39;99605.52;68319;1282;1015832;-62
2023/04/03 10:46:28;;;;;;;11.10;2.30;;;;;;;9.51;44.42;99609.02;68305;1282;1014755;-61
2023/04/03 10:49:30;;;;;;;11.60;2.40;;;;;;;9.35;42.69;99607.94;68331;1282;1015764;-62
2023/04/03 10:52:32;;;;;;;19.00;3.50;;;;;;;9.09;41.93;99600.49;68311;1282;1015983;-61
2023/04/03 10:55:35;;;;;;;13.70;2.90;;;;;;;8.96;43.07;99602.11;68332;1282;1015829;-61
2023/04/03 10:58:37;;;;;;;15.30;2.90;;;;;;;9.03;43.14;99604.45;68305;1282;1016113;-62
2023/04/03 11:01:40;;;;;;;11.10;2.50;;;;;;;8.94;42.87;99609.33;68319;1282;1015021;-62
2023/04/03 11:04:42;;;;;;;11.70;2.80;;;;;;;8.74;43.38;99612.81;68308;1282;1015237;-62
2023/04/03 11:07:44;;;;;;;11.60;2.50;;;;;;;8.95;44.28;99610.02;68319;1282;1016113;-61
2023/04/03 11:10:47;;;;;;;12.80;2.80;;;;;;;9.39;44.44;99610.06;68306;1282;1015451;-62
2023/04/03 11:13:49;;;;;;;13.30;2.90;;;;;;;9.56;42.36;99604.92;68302;1282;1015958;-62
2023/04/03 11:16:52;;;;;;;11.10;2.30;;;;;;;9.77;42.51;99591.82;68322;1282;1015217;-61
2023/04/03 11:19:54;;;;;;;14.60;2.50;;;;;;;9.66;40.86;99598.90;68316;1282;1016053;-62
2023/04/03 11:22:58;;;;;;;13.00;2.50;;;;;;;9.60;41.46;99595.34;68324;1282;1015405;-62
2023/04/03 11:26:00;;;;;;;7.10;2.00;;;;;;;9.44;41.39;99599.38;68322;1282;1015406;-61
2023/04/03 11:29:03;;;;;;;9.00;2.20;;;;;;;9.43;40.82;99601.50;68328;1282;1015421;-62
2023/04/03 11:32:06;;;;;;;9.40;2.10;;;;;;;9.51;40.42;99600.45;68325;1282;1015933;-62
2023/04/03 11:35:09;;;;;;;8.30;2.10;;;;;;;9.66;39.83;99598.38;68311;1282;1015646;-61
2023/04/03 11:38:11;;;;;;;;;;;;;;;9.84;39.85;99597.77;68319;1282;1015365;-62
2023/04/03 11:41:14;;;;;;;8.70;2.30;;;;;;;9.78;39.21;99596.11;68299;1282;1014894;-62
2023/04/03 11:44:16;;;;;;;10.80;2.70;;;;;;;9.83;40.39;99582.09;68304;1282;1015379;-62
2023/04/03 11:47:18;;;;;;;9.70;2.40;;;;;;;9.89;40.65;99583.58;68324;1282;1016025;-62
2023/04/03 11:50:21;;;;;;;8.60;2.10;;;;;;;9.71;39.90;99598.85;68309;1282;1016141;-62
2023/04/03 11:53:23;;;;;;;11.30;2.60;;;;;;;9.84;38.41;99594.79;68317;1282;1016163;-62
2023/04/03 11:56:26;;;;;;;11.70;2.60;;;;;;;10.02;38.21;99591.54;68320;1282;1015311;-62
2023/04/03 11:59:28;;;;;;;10.80;2.40;;;;;;;10.36;38.32;99594.35;68322;1282;1015695;-62
2023/04/03 12:02:31;;;;;;;11.90;2.60;;;;;;;10.64;37.39;99581.43;68324;1282;1016050;-62
2023/04/03 12:05:33;;;;;;;11.40;2.30;;;;;;;10.83;37.64;99578.55;68310;1282;1015619;-62
2023/04/03 12:08:36;;;;;;;11.80;2.50;;;;;;;10.55;37.29;99586.07;68314;1282;1015459;-62
2023/04/03 12:11:39;;;;;;;7.90;2.50;;;;;;;10.88;38.17;99585.30;68315;1282;1016063;-62
2023/04/03 12:14:42;;;;;;;9.00;2.50;;;;;;;10.88;37.10;99588.84;68315;1282;1015727;-62
2023/04/03 12:17:45;;;;;;;13.30;2.70;;;;;;;10.24;35.69;99593.66;68316;1282;1016045;-62
2023/04/03 12:20:48;;;;;;;9.00;2.10;;;;;;;9.90;36.18;99584.18;68319;1282;1015340;-62
2023/04/03 12:23:50;;;;;;;13.50;2.40;;;;;;;9.82;36.67;99580.54;68310;1282;1015840;-62
2023/04/03 12:26:52;;;;;;;9.40;2.30;;;;;;;9.71;36.38;99580.17;68314;1282;1015838;-62
2023/04/03 12:29:55;;;;;;;9.70;2.30;;;;;;;9.89;37.71;99583.91;68310;1282;1015420;-62
2023/04/03 12:32:58;;;;;;;9.90;2.20;;;;;;;9.93;37.03;99575.67;68315;1282;1015688;-62
2023/04/03 12:36:01;;;;;;;8.70;2.00;;;;;;;10.08;36.88;99574.65;68315;1282;1015874;-62
2023/04/03 12:39:04;;;;;;;13.40;2.10;;;;;;;10.12;36.13;99573.23;68318;1282;1015486;-62
2023/04/03 12:42:06;;;;;;;8.90;2.00;;;;;;;10.04;36.12;99577.78;68299;1282;1015787;-62
2023/04/03 12:45:09;;;;;;;8.10;2.20;;;;;;;10.20;35.94;99579.15;68313;1282;1016172;-62
2023/04/03 12:48:11;;;;;;;10.80;2.20;;;;;;;10.22;35.87;99577.85;68315;1282;1014828;-62
2023/04/03 12:51:13;;;;;;;6.90;1.90;;;;;;;10.77;36.27;99578.01;68323;1282;1015894;-62
2023/04/03 12:54:16;;;;;;;10.00;2.40;;;;;;;11.40;36.48;99574.45;68314;1282;1015660;-62
2023/04/03 12:57:18;;;;;;;9.50;2.30;;;;;;;10.98;34.38;99578.90;68328;1282;1016057;-62
2023/04/03 13:00:21;;;;;;;12.70;2.40;;;;;;;10.23;34.76;99585.81;68319;1282;1015817;-62
2023/04/03 13:03:23;;;;;;;9.50;2.40;;;;;;;9.79;34.83;99591.18;68316;1282;1015507;-62
2023/04/03 13:06:26;;;;;;;8.50;2.30;;;;;;;9.63;35.52;99586.97;68318;1282;1015927;-62
2023/04/03 13:09:29;;;;;;;10.00;2.30;;;;;;;9.67;35.73;99580.33;68318;1282;1016744;-62
2023/04/03 13:12:31;;;;;;;7.10;1.70;;;;;;;9.73;35.94;99588.30;68310;1282;1015465;-62
2023/04/03 13:15:36;;;;;;;11.40;2.60;;;;;;;9.79;35.57;99586.80;68319;1282;1015412;-62
2023/04/03 13:18:38;;;;;;;6.90;2.10;;;;;;;10.27;35.79;99584.09;68308;1282;1016085;-62
2023/04/03 13:21:41;;;;;;;11.50;2.50;;;;;;;10.49;35.70;99584.27;65275;1282;6988662;-62
2023/04/03 13:24:43;;;;;;;9.30;2.20;;;;;;;10.26;35.05;99580.48;68318;1282;1015810;-62
2023/04/03 13:27:46;;;;;;;12.70;2.50;;;;;;;9.73;35.36;99579.59;68317;1282;1015479;-62
2023/04/03 13:30:48;;;;;;;;;;;;;;;9.44;35.69;99595.86;68339;1282;1015575;-62
2023/04/03 13:33:51;;;;;;;6.10;1.90;;;;;;;9.56;36.00;99585.39;68319;1282;1015722;-63
2023/04/03 13:36:53;;;;;;;;;;;;;;;9.59;35.18;99587.37;68332;1282;1015471;-62
2023/04/03 13:39:56;;;;;;;9.10;2.00;;;;;;;9.68;35.09;99580.48;68322;1282;1016180;-62
2023/04/03 13:42:58;;;;;;;9.90;2.20;;;;;;;10.11;35.78;99583.41;68322;1282;1015421;-62
2023/04/03 13:46:01;;;;;;;10.30;2.10;;;;;;;10.33;35.09;99578.54;68324;1282;1015790;-62
2023/04/03 13:49:03;;;;;;;8.30;2.30;;;;;;;10.36;34.84;99580.33;68307;1282;1015361;-62
2023/04/03 13:52:05;;;;;;;11.30;2.30;;;;;;;10.06;35.03;99575.61;68315;1282;1015494;-62
2023/04/03 13:55:08;;;;;;;8.80;2.40;;;;;;;9.82;35.21;99587.70;68305;1282;1016070;-62
2023/04/03 13:58:10;;;;;;;6.70;2.00;;;;;;;9.57;33.85;99581.86;68315;1282;1015697;-62
2023/04/03 14:01:13;;;;;;;9.10;2.10;;;;;;;9.75;34.18;99572.29;68305;1282;1015781;-62
2023/04/03 14:04:16;;;;;;;8.00;2.00;;;;;;;10.07;33.71;99572.75;68322;1282;1015894;-62